Miltona, Minnesota
Current Conditions -  °F | °C
As of 10:53 AM on Saturday 25 Oct 2014 (Local Time) from KAXN Reporting Station
Clear Clear  
Wind Chill: 12°   Ceiling: Unl
Heat Index: 12°   Visibility: 10mi
Dew Point:   Wind: 15mph
Humidity: 47%   Direction: 310°NW
Pressure: 30.1"   Gusts: NA
Location:  46.04°N, 95.29°W
Report Text: KAXN 251553Z AUTO 31013KT 10SM CLR 12/01 A3010 RMK AO2 SLP198 T01170006
Loading
Personal Weather Stations






























Interactive Weather Map
Tropical Storm Tracking
New forecast layout! Learn more

10-Day Weather Forecast

Advertisements
Track Severe Weather on mobile